Time;durP1;ratioP1;P1;durP2;ratioP2;P2;SDS_P1;SDS_P2;PMS_P1;PMS_P2;Temp;Humidity;BMP_temperature;BMP_pressure;BME280_temperature;BME280_humidity;BME280_pressure;Samples;Min_cycle;Max_cycle;Signal;HPM_P1;HPM_P2
2021/07/09 00:01:39;;;;;;;33.53;20.63;;;16.30;99.90;;;;;;4976169;28;20251;-63
2021/07/09 00:04:06;;;;;;;41.63;24.37;;;16.30;99.90;;;;;;4975788;28;20267;-63
2021/07/09 00:06:33;;;;;;;39.03;24.20;;;16.30;99.90;;;;;;4976176;28;20368;-63
2021/07/09 00:09:01;;;;;;;37.03;24.10;;;16.30;99.90;;;;;;4976045;28;20220;-63
2021/07/09 00:11:28;;;;;;;36.00;23.73;;;16.30;99.90;;;;;;4975862;28;20212;-63
2021/07/09 00:13:54;;;;;;;37.43;23.30;;;16.30;99.90;;;;;;4975813;28;20212;-63
2021/07/09 00:16:21;;;;;;;43.23;24.33;;;16.30;99.90;;;;;;4975635;28;20669;-62
2021/07/09 00:18:50;;;;;;;50.20;24.83;;;16.30;99.90;;;;;;4975735;28;20212;-63
2021/07/09 00:21:17;;;;;;;45.60;25.33;;;16.30;99.90;;;;;;4975879;28;20239;-65
2021/07/09 00:23:45;;;;;;;42.20;25.20;;;16.30;99.90;;;;;;4975667;28;20255;-63
2021/07/09 00:26:12;;;;;;;43.53;25.57;;;16.30;99.90;;;;;;4975579;28;20224;-63
2021/07/09 00:28:39;;;;;;;56.00;26.00;;;16.30;99.90;;;;;;4975680;28;20208;-64
2021/07/09 00:31:06;;;;;;;45.03;25.03;;;16.40;99.90;;;;;;4975526;28;20212;-63
2021/07/09 00:33:33;;;;;;;47.30;25.87;;;16.30;99.90;;;;;;4975546;28;20208;-63
2021/07/09 00:36:01;;;;;;;51.90;26.97;;;16.30;99.90;;;;;;4975493;28;20228;-63
2021/07/09 00:38:27;;;;;;;59.63;27.70;;;16.30;1.00;;;;;;4975452;28;20267;-64
2021/07/09 00:40:54;;;;;;;46.53;26.17;;;16.30;99.90;;;;;;4975531;28;20267;-63
2021/07/09 00:43:21;;;;;;;63.67;27.70;;;16.20;1.00;;;;;;4975558;28;20212;-62
2021/07/09 00:45:48;;;;;;;54.50;27.80;;;16.20;1.00;;;;;;4975253;28;20214;-63
2021/07/09 00:48:14;;;;;;;68.50;28.90;;;16.20;1.00;;;;;;4975610;28;20267;-62
2021/07/09 00:50:41;;;;;;;60.17;27.53;;;16.10;1.00;;;;;;4975523;28;20208;-63
2021/07/09 00:53:09;;;;;;;57.87;27.27;;;16.20;1.00;;;;;;4975372;28;20264;-63
2021/07/09 00:55:36;;;;;;;72.63;31.10;;;16.10;1.00;;;;;;4976068;28;20636;-63
2021/07/09 00:58:04;;;;;;;67.10;31.87;;;16.00;1.00;;;;;;4976410;28;20787;-62
2021/07/09 01:00:32;;;;;;;69.03;31.63;;;16.00;1.00;;;;;;4976041;28;20212;-62
2021/07/09 01:02:59;;;;;;;66.80;31.03;;;16.00;1.00;;;;;;4976583;28;20208;-62
2021/07/09 01:05:26;;;;;;;68.37;33.07;;;16.10;1.00;;;;;;4976241;28;20681;-63
2021/07/09 01:07:53;;;;;;;67.77;30.63;;;16.10;1.00;;;;;;4975249;28;20224;-62
2021/07/09 01:10:22;;;;;;;67.53;31.27;;;16.00;1.00;;;;;;4973736;28;20212;-63
2021/07/09 01:12:49;;;;;;;75.67;34.07;;;16.00;1.00;;;;;;4974742;28;20263;-63
2021/07/09 01:15:17;;;;;;;66.97;31.27;;;16.00;1.00;;;;;;4974785;28;20204;-63
2021/07/09 01:17:44;;;;;;;70.90;32.07;;;16.00;1.00;;;;;;4974862;28;20312;-63
2021/07/09 01:20:13;;;;;;;73.37;32.70;;;16.10;1.00;;;;;;4974655;28;20839;-65
2021/07/09 01:22:42;;;;;;;64.03;30.43;;;16.10;1.00;;;;;;4975332;28;20208;-63
2021/07/09 01:25:13;;;;;;;72.77;32.20;;;16.10;1.00;;;;;;4975078;28;20218;-62
2021/07/09 01:27:39;;;;;;;70.27;32.27;;;16.00;1.00;;;;;;4976421;28;20224;-63
2021/07/09 01:30:10;;;;;;;66.53;29.40;;;16.00;1.00;;;;;;4974602;28;20285;-63
2021/07/09 01:32:37;;;;;;;70.20;28.73;;;16.10;1.00;;;;;;4974631;28;20212;-63
2021/07/09 01:35:05;;;;;;;74.20;29.87;;;16.10;1.00;;;;;;4974105;28;20744;-62
2021/07/09 01:37:32;;;;;;;65.17;29.57;;;16.10;1.00;;;;;;4974785;28;20376;-62
2021/07/09 01:39:59;;;;;;;59.77;28.77;;;16.10;1.00;;;;;;4974792;28;20630;-63
2021/07/09 01:42:27;;;;;;;63.57;28.67;;;16.10;1.00;;;;;;4974854;28;20259;-63
2021/07/09 01:44:53;;;;;;;62.27;27.50;;;16.10;1.00;;;;;;4975998;28;20727;-63
2021/07/09 01:47:20;;;;;;;46.50;25.63;;;16.10;1.00;;;;;;4974021;28;20718;-63
2021/07/09 01:49:55;;;;;;;56.20;27.23;;;16.20;1.00;;;;;;4975725;28;20208;-63
2021/07/09 01:52:23;;;;;;;46.87;27.43;;;16.20;1.00;;;;;;4975625;28;20224;-62
2021/07/09 01:54:50;;;;;;;58.37;27.43;;;16.30;1.00;;;;;;4975519;28;20279;-63
2021/07/09 01:57:17;;;;;;;56.67;28.73;;;16.20;1.00;;;;;;4973688;28;20236;-62
2021/07/09 01:59:45;;;;;;;54.60;27.30;;;16.20;1.00;;;;;;4974107;28;20270;-63
2021/07/09 02:02:14;;;;;;;67.13;31.07;;;16.20;1.00;;;;;;4973953;28;20208;-62
2021/07/09 02:04:45;;;;;;;72.87;31.60;;;16.20;1.00;;;;;;4973702;28;20610;-63
2021/07/09 02:07:12;;;;;;;65.90;30.53;;;16.20;1.00;;;;;;4973685;28;20835;-63
2021/07/09 02:09:42;;;;;;;61.77;30.23;;;16.20;1.00;;;;;;4973796;28;20231;-63
2021/07/09 02:12:08;;;;;;;59.50;30.73;;;16.20;1.00;;;;;;4973948;28;20208;-61
2021/07/09 02:14:35;;;;;;;58.20;28.23;;;16.20;1.00;;;;;;4973537;28;20216;-63
2021/07/09 02:17:06;;;;;;;61.00;28.43;;;16.20;99.90;;;;;;4973567;28;20236;-63
2021/07/09 02:19:33;;;;;;;52.80;25.93;;;16.30;99.90;;;;;;4973382;28;20205;-63
2021/07/09 02:22:01;;;;;;;56.27;24.93;;;16.30;99.90;;;;;;4973510;28;20621;-63
2021/07/09 02:24:28;;;;;;;48.67;25.03;;;16.30;99.90;;;;;;4973589;28;20266;-63
2021/07/09 02:26:54;;;;;;;43.73;24.67;;;16.30;99.90;;;;;;4973627;28;20299;-63
2021/07/09 02:29:21;;;;;;;48.17;28.00;;;16.30;99.90;;;;;;4973469;28;20204;-63
2021/07/09 02:31:47;;;;;;;63.37;27.27;;;16.30;99.90;;;;;;4973570;28;20263;-63
2021/07/09 02:34:15;;;;;;;50.00;27.77;;;16.30;99.90;;;;;;4973069;28;20267;-63
2021/07/09 02:36:42;;;;;;;49.77;27.13;;;16.30;99.90;;;;;;4973394;28;20240;-63
2021/07/09 02:39:11;;;;;;;51.67;27.03;;;16.30;99.90;;;;;;4973582;28;20215;-63
2021/07/09 02:41:38;;;;;;;48.87;27.40;;;16.30;99.90;;;;;;4973310;28;20255;-62
2021/07/09 02:44:05;;;;;;;45.97;26.73;;;16.30;99.90;;;;;;4973291;28;20208;-63
2021/07/09 02:46:32;;;;;;;50.00;26.30;;;16.30;99.90;;;;;;4973128;28;20235;-62
2021/07/09 02:48:58;;;;;;;83.93;31.17;;;16.30;99.90;;;;;;4973400;28;20208;-63
2021/07/09 02:51:26;;;;;;;61.73;29.80;;;16.20;99.90;;;;;;4973319;28;20209;-64
2021/07/09 02:53:53;;;;;;;69.70;29.57;;;16.20;99.90;;;;;;4973420;28;20263;-64
2021/07/09 02:56:19;;;;;;;59.47;28.37;;;16.20;99.90;;;;;;4973122;28;20264;-62
2021/07/09 02:58:46;;;;;;;75.10;28.97;;;16.20;99.90;;;;;;4973027;28;20220;-63
2021/07/09 03:01:13;;;;;;;52.63;26.80;;;16.20;99.90;;;;;;4972953;28;20735;-63
2021/07/09 03:03:39;;;;;;;69.70;28.77;;;16.20;99.90;;;;;;4972924;28;20216;-62
2021/07/09 03:06:06;;;;;;;53.47;27.37;;;16.20;99.90;;;;;;4972987;28;20275;-63
2021/07/09 03:08:34;;;;;;;57.77;31.20;;;16.30;99.90;;;;;;4973122;28;20266;-63
2021/07/09 03:11:01;;;;;;;54.37;30.33;;;16.30;99.90;;;;;;4973065;28;20212;-63
2021/07/09 03:13:28;;;;;;;55.50;29.00;;;16.30;99.90;;;;;;4972809;28;20622;-63
2021/07/09 03:15:55;;;;;;;59.17;29.63;;;16.30;99.90;;;;;;4972782;28;20212;-63
2021/07/09 03:18:21;;;;;;;49.40;28.17;;;16.30;99.90;;;;;;4972873;28;20225;-63
2021/07/09 03:20:48;;;;;;;60.30;28.80;;;16.30;99.90;;;;;;4973149;28;20571;-62
2021/07/09 03:23:14;;;;;;;62.47;29.30;;;16.20;99.90;;;;;;4972856;28;20212;-63
2021/07/09 03:25:42;;;;;;;60.50;30.43;;;16.20;99.90;;;;;;4972744;28;20209;-64
2021/07/09 03:28:09;;;;;;;66.50;31.77;;;16.20;99.90;;;;;;4973126;28;20200;-63
2021/07/09 03:30:36;;;;;;;66.53;32.20;;;16.20;99.90;;;;;;4972879;28;20936;-63
2021/07/09 03:33:02;;;;;;;64.30;32.13;;;16.20;99.90;;;;;;4974636;28;20274;-63
2021/07/09 03:35:29;;;;;;;62.70;31.60;;;16.20;99.90;;;;;;4976554;28;20254;-62
2021/07/09 03:37:56;;;;;;;62.80;30.73;;;16.20;99.90;;;;;;4976539;28;20287;-63
2021/07/09 03:40:22;;;;;;;57.07;32.37;;;16.20;99.90;;;;;;4976464;28;20241;-62
2021/07/09 03:42:50;;;;;;;58.37;31.17;;;16.30;99.90;;;;;;4976746;28;20212;-62
2021/07/09 03:45:19;;;;;;;57.13;30.30;;;16.30;99.90;;;;;;4976044;28;20219;-62
2021/07/09 03:47:46;;;;;;;63.23;32.27;;;16.30;99.90;;;;;;4976516;28;20643;-63
2021/07/09 03:50:14;;;;;;;62.57;31.63;;;16.30;99.90;;;;;;4976424;28;20216;-63
2021/07/09 03:52:41;;;;;;;68.17;32.40;;;16.30;99.90;;;;;;4976295;28;20243;-63
2021/07/09 03:55:08;;;;;;;66.53;33.60;;;16.30;99.90;;;;;;4976091;28;20212;-62
2021/07/09 03:57:35;;;;;;;57.43;31.57;;;16.30;99.90;;;;;;4975811;28;20232;-63
2021/07/09 04:00:05;;;;;;;61.13;32.23;;;16.30;99.90;;;;;;4976329;28;20282;-62
2021/07/09 04:02:32;;;;;;;68.07;31.93;;;16.30;99.90;;;;;;4976101;28;20222;-62
2021/07/09 04:04:59;;;;;;;64.43;32.87;;;16.30;99.90;;;;;;4976023;28;20210;-63
2021/07/09 04:07:25;;;;;;;71.73;32.93;;;16.30;99.90;;;;;;4975885;28;20303;-62
2021/07/09 04:09:52;;;;;;;68.57;34.27;;;16.30;99.90;;;;;;4975902;28;20208;-63
2021/07/09 04:12:19;;;;;;;60.90;33.10;;;16.30;99.90;;;;;;4975965;28;20216;-63
2021/07/09 04:14:45;;;;;;;63.03;33.63;;;16.40;99.90;;;;;;4975929;28;20216;-62
2021/07/09 04:17:13;;;;;;;66.83;34.37;;;16.40;99.90;;;;;;4975579;28;20685;-62
2021/07/09 04:19:40;;;;;;;59.70;31.20;;;16.40;99.90;;;;;;4975720;28;20234;-62
2021/07/09 04:22:07;;;;;;;63.73;30.97;;;16.40;99.90;;;;;;4975809;28;20627;-62
2021/07/09 04:24:34;;;;;;;53.47;30.80;;;16.40;99.90;;;;;;4975297;28;20626;-62
2021/07/09 04:27:01;;;;;;;59.50;32.73;;;16.40;99.90;;;;;;4975824;28;20282;-62
2021/07/09 04:29:27;;;;;;;58.23;31.77;;;16.40;99.90;;;;;;4975736;28;20212;-63
2021/07/09 04:31:54;;;;;;;56.97;33.60;;;16.50;99.90;;;;;;4975703;28;20622;-62
2021/07/09 04:34:22;;;;;;;62.43;35.03;;;16.50;99.90;;;;;;4975304;28;20267;-63
2021/07/09 04:36:48;;;;;;;57.27;35.23;;;16.60;99.90;;;;;;4975291;28;20713;-63
2021/07/09 04:39:15;;;;;;;63.93;32.90;;;16.60;99.90;;;;;;4975253;28;20212;-63
2021/07/09 04:41:42;;;;;;;61.93;33.80;;;16.60;99.90;;;;;;4975595;28;20216;-63
2021/07/09 04:44:08;;;;;;;56.17;31.93;;;16.60;99.90;;;;;;4975179;28;20282;-62
2021/07/09 04:46:35;;;;;;;54.50;32.47;;;16.60;99.90;;;;;;4975076;28;20228;-63
2021/07/09 04:49:02;;;;;;;58.97;31.47;;;16.60;99.90;;;;;;4975325;28;20204;-63
2021/07/09 04:51:30;;;;;;;63.70;33.37;;;16.50;99.90;;;;;;4975262;28;20258;-62
2021/07/09 04:53:56;;;;;;;68.50;37.80;;;16.50;99.90;;;;;;4975133;28;20212;-63
2021/07/09 04:56:23;;;;;;;67.40;37.63;;;16.50;99.90;;;;;;4975289;28;20720;-63
2021/07/09 04:58:49;;;;;;;67.67;36.83;;;16.50;99.90;;;;;;4975053;28;20270;-63
2021/07/09 05:01:16;;;;;;;73.37;37.13;;;16.50;99.90;;;;;;4975057;28;20209;-63
2021/07/09 05:03:43;;;;;;;68.07;36.40;;;16.50;99.90;;;;;;4974923;28;20263;-62
2021/07/09 05:06:09;;;;;;;66.20;36.07;;;16.50;99.90;;;;;;4974698;28;20236;-63
2021/07/09 05:08:37;;;;;;;68.77;37.83;;;16.60;99.90;;;;;;4974808;28;20262;-63
2021/07/09 05:11:04;;;;;;;63.40;37.83;;;16.60;1.00;;;;;;4975007;28;20208;-63
2021/07/09 05:13:31;;;;;;;56.87;34.87;;;16.60;1.00;;;;;;4974714;28;20223;-62
2021/07/09 05:15:57;;;;;;;57.00;37.60;;;16.70;1.00;;;;;;4974622;28;20282;-63
2021/07/09 05:18:24;;;;;;;61.37;38.10;;;16.70;99.90;;;;;;4974553;28;20228;-62
2021/07/09 05:20:51;;;;;;;64.77;39.37;;;16.70;99.90;;;;;;4974478;28;20212;-63
2021/07/09 05:23:17;;;;;;;67.83;40.47;;;16.70;99.90;;;;;;4974492;28;20732;-63
2021/07/09 05:25:45;;;;;;;70.13;41.20;;;16.70;99.90;;;;;;4974503;28;20215;-62
2021/07/09 05:28:12;;;;;;;72.00;42.63;;;16.70;99.90;;;;;;4974567;28;20263;-63
2021/07/09 05:30:39;;;;;;;68.60;43.20;;;16.70;1.00;;;;;;4974331;28;20669;-64
2021/07/09 05:33:05;;;;;;;81.23;45.00;;;16.70;1.00;;;;;;4974517;28;20340;-62
2021/07/09 05:35:35;;;;;;;84.53;47.27;;;16.60;1.00;;;;;;4974241;28;20619;-63
2021/07/09 05:38:02;;;;;;;80.43;46.50;;;16.60;1.00;;;;;;4974437;28;20286;-63
2021/07/09 05:40:28;;;;;;;87.67;51.37;;;16.70;1.00;;;;;;4974378;28;20239;-63
2021/07/09 05:42:56;;;;;;;94.43;53.87;;;16.70;1.00;;;;;;4974704;28;20208;-63
2021/07/09 05:45:23;;;;;;;92.37;54.17;;;16.80;1.00;;;;;;4975570;28;20211;-63
2021/07/09 05:47:50;;;;;;;115.97;60.40;;;16.80;1.00;;;;;;4975490;28;20228;-62
2021/07/09 05:50:16;;;;;;;146.07;72.40;;;16.90;1.00;;;;;;4974194;28;20212;-62
2021/07/09 05:52:43;;;;;;;151.17;74.57;;;16.80;1.00;;;;;;4976991;28;20204;-63
2021/07/09 05:55:11;;;;;;;162.83;78.73;;;16.90;1.00;;;;;;4976375;28;20670;-63
2021/07/09 05:57:37;;;;;;;150.10;78.13;;;17.00;1.00;;;;;;4975777;28;20726;-62
2021/07/09 06:00:07;;;;;;;171.53;81.07;;;17.10;1.00;;;;;;4974021;28;20212;-63
2021/07/09 06:02:34;;;;;;;217.50;107.80;;;17.00;1.00;;;;;;4973785;28;20217;-61
2021/07/09 06:05:01;;;;;;;190.57;90.90;;;17.00;1.00;;;;;;4973861;28;20208;-62
2021/07/09 06:07:27;;;;;;;158.13;79.90;;;17.00;1.00;;;;;;4973763;28;20224;-63
2021/07/09 06:09:54;;;;;;;150.60;79.43;;;16.90;1.00;;;;;;4973870;28;20208;-63
2021/07/09 06:12:20;;;;;;;144.23;78.30;;;16.90;1.00;;;;;;4973745;28;20263;-62
2021/07/09 06:14:47;;;;;;;131.17;72.37;;;16.90;1.00;;;;;;4973557;28;20347;-63
2021/07/09 06:17:15;;;;;;;125.03;70.13;;;16.90;1.00;;;;;;4973531;28;20285;-63
2021/07/09 06:19:42;;;;;;;133.33;75.30;;;16.90;1.00;;;;;;4973695;28;20229;-63
2021/07/09 06:22:09;;;;;;;136.23;76.07;;;16.90;1.00;;;;;;4973658;28;20216;-62
2021/07/09 06:24:36;;;;;;;129.60;74.87;;;17.00;1.00;;;;;;4973417;28;20649;-63
2021/07/09 06:27:03;;;;;;;135.17;76.17;;;16.90;1.00;;;;;;4973878;28;20294;-63
2021/07/09 06:29:29;;;;;;;140.43;76.50;;;16.90;1.00;;;;;;4973453;28;20204;-62
2021/07/09 06:31:57;;;;;;;114.57;69.47;;;17.00;1.00;;;;;;4972911;28;20657;-63
2021/07/09 06:34:24;;;;;;;113.00;69.43;;;17.10;1.00;;;;;;4973242;28;20212;-63
2021/07/09 06:36:51;;;;;;;109.93;67.90;;;17.10;99.90;;;;;;4973324;28;20304;-62
2021/07/09 06:39:18;;;;;;;109.63;68.00;;;17.00;99.90;;;;;;4973679;28;20228;-63
2021/07/09 06:41:45;;;;;;;102.30;63.77;;;17.00;99.90;;;;;;4973446;28;20673;-62
2021/07/09 06:44:11;;;;;;;103.60;64.63;;;17.00;99.90;;;;;;4973071;28;20216;-62
2021/07/09 06:46:39;;;;;;;101.77;64.17;;;17.10;99.90;;;;;;4973599;28;20228;-62
2021/07/09 06:49:06;;;;;;;103.03;65.40;;;17.20;99.90;;;;;;4973662;28;20208;-63
2021/07/09 06:51:34;;;;;;;95.87;62.70;;;17.30;99.90;;;;;;4973318;28;20212;-63
2021/07/09 06:54:00;;;;;;;73.80;51.73;;;17.30;99.90;;;;;;4971528;28;20208;-63
2021/07/09 06:56:27;;;;;;;76.93;54.63;;;17.40;99.90;;;;;;4972399;28;20639;-63
2021/07/09 06:58:53;;;;;;;77.23;55.80;;;17.40;79.20;;;;;;4972685;28;20232;-62
2021/07/09 07:01:20;;;;;;;80.13;55.83;;;17.40;1.00;;;;;;4972379;28;20685;-63
2021/07/09 07:03:47;;;;;;;74.47;52.60;;;17.50;1.00;;;;;;4973028;28;20208;-62
2021/07/09 07:06:14;;;;;;;70.33;51.27;;;17.60;99.90;;;;;;4972759;28;20232;-62
2021/07/09 07:08:42;;;;;;;67.70;49.93;;;17.60;1.00;;;;;;4976077;28;20208;-63
2021/07/09 07:11:09;;;;;;;72.83;50.80;;;17.70;99.90;;;;;;4976705;28;20275;-62
2021/07/09 07:13:36;;;;;;;66.07;50.00;;;17.90;99.90;;;;;;4977032;28;20278;-63
2021/07/09 07:16:04;;;;;;;56.63;44.17;;;18.00;99.90;;;;;;4977202;28;20266;-62
2021/07/09 07:18:31;;;;;;;56.30;40.83;;;18.00;99.90;;;;;;4976849;28;20232;-62
2021/07/09 07:20:57;;;;;;;51.47;38.40;;;18.00;99.90;;;;;;4977039;28;20212;-63
2021/07/09 07:23:24;;;;;;;50.07;37.63;;;18.00;1.00;;;;;;4976754;28;20259;-62
2021/07/09 07:25:52;;;;;;;45.63;36.30;;;18.10;1.00;;;;;;4976499;28;20559;-62
2021/07/09 07:28:19;;;;;;;57.73;39.90;;;18.10;1.00;;;;;;4976758;28;20212;-62
2021/07/09 07:30:46;;;;;;;47.03;36.97;;;18.10;99.90;;;;;;4976775;28;20887;-62
2021/07/09 07:33:13;;;;;;;37.67;28.83;;;18.10;99.90;;;;;;4976710;28;20212;-62
2021/07/09 07:35:40;;;;;;;44.60;32.00;;;18.10;99.90;;;;;;4976668;28;20242;-62
2021/07/09 07:38:07;;;;;;;41.97;31.87;;;18.00;99.90;;;;;;4976305;28;20761;-63
2021/07/09 07:40:37;;;;;;;44.30;32.77;;;17.90;99.90;;;;;;4975991;28;20212;-62
2021/07/09 07:43:05;;;;;;;41.93;32.53;;;17.80;1.00;;;;;;4976545;28;20208;-63
2021/07/09 07:45:32;;;;;;;37.90;28.33;;;17.80;1.00;;;;;;4976389;28;20215;-63
2021/07/09 07:47:59;;;;;;;30.77;24.23;;;17.80;1.00;;;;;;4976294;28;20584;-62
2021/07/09 07:50:27;;;;;;;42.43;25.93;;;17.80;1.00;;;;;;4976113;28;20279;-62
2021/07/09 07:52:54;;;;;;;39.73;28.30;;;17.90;1.00;;;;;;4976120;28;20208;-63
2021/07/09 07:55:21;;;;;;;39.73;27.77;;;17.90;1.00;;;;;;4976159;28;20280;-62
2021/07/09 07:57:48;;;;;;;32.70;24.60;;;17.90;99.90;;;;;;4976004;28;20283;-63
2021/07/09 08:00:17;;;;;;;29.47;23.47;;;18.10;99.90;;;;;;4976164;28;20246;-63
2021/07/09 08:02:43;;;;;;;30.67;24.23;;;18.20;99.90;;;;;;4976279;28;20216;-61
2021/07/09 08:05:11;;;;;;;30.50;24.17;;;18.20;1.00;;;;;;4976043;28;20212;-62
2021/07/09 08:07:38;;;;;;;27.03;20.80;;;18.30;1.00;;;;;;4975707;28;20278;-61
2021/07/09 08:10:06;;;;;;;31.37;22.40;;;18.40;99.90;;;;;;4976413;28;20212;-61
2021/07/09 08:12:33;;;;;;;25.40;20.90;;;18.40;1.00;;;;;;4975949;28;20212;-62
2021/07/09 08:14:59;;;;;;;23.90;20.90;;;18.50;99.90;;;;;;4975945;28;20204;-63
2021/07/09 08:17:27;;;;;;;25.00;20.93;;;18.50;99.90;;;;;;4975745;28;20287;-63
2021/07/09 08:19:54;;;;;;;30.37;20.60;;;18.60;87.70;;;;;;4975037;28;20282;-62
2021/07/09 08:22:21;;;;;;;27.83;21.10;;;18.70;1.00;;;;;;4975807;28;20676;-65
2021/07/09 08:24:48;;;;;;;26.40;19.83;;;18.80;99.90;;;;;;4971635;28;20267;-63
2021/07/09 08:27:14;;;;;;;25.53;19.60;;;19.00;1.00;;;;;;4975367;28;20227;-63
2021/07/09 08:29:42;;;;;;;25.33;19.70;;;19.10;99.90;;;;;;4975597;28;20670;-64
2021/07/09 08:32:09;;;;;;;24.43;20.53;;;19.30;99.90;;;;;;4975409;28;20213;-61
2021/07/09 08:34:37;;;;;;;26.97;21.23;;;19.30;99.90;;;;;;4974743;28;20212;-62
2021/07/09 08:37:04;;;;;;;27.47;21.00;;;19.40;3.60;;;;;;4975455;28;20255;-64
2021/07/09 08:39:31;;;;;;;23.83;21.27;;;19.50;1.00;;;;;;4975076;28;20291;-64
2021/07/09 08:41:57;;;;;;;25.83;22.57;;;19.40;1.00;;;;;;4975311;28;20259;-65
2021/07/09 08:44:24;;;;;;;29.90;22.53;;;19.40;99.90;;;;;;4974484;28;20212;-66
2021/07/09 08:46:55;;;;;;;28.33;20.87;;;19.30;99.90;;;;;;4975098;28;20252;-64
2021/07/09 08:49:22;;;;;;;25.47;20.20;;;19.30;1.00;;;;;;4975007;28;20216;-62
2021/07/09 08:51:51;;;;;;;29.77;24.03;;;19.20;1.00;;;;;;4975009;28;20681;-64
2021/07/09 08:54:19;;;;;;;35.47;25.43;;;19.30;1.00;;;;;;4974371;28;20211;-62
2021/07/09 08:56:48;;;;;;;30.13;25.07;;;19.40;1.00;;;;;;4974707;28;20224;-62
2021/07/09 08:59:14;;;;;;;31.57;25.77;;;19.50;1.00;;;;;;4974861;28;20832;-63
2021/07/09 09:01:48;;;;;;;32.00;25.77;;;19.30;1.00;;;;;;4974606;28;20212;-62
2021/07/09 09:04:15;;;;;;;33.97;27.10;;;19.20;99.90;;;;;;4973997;28;20650;-63
2021/07/09 09:06:42;;;;;;;33.80;27.50;;;19.30;99.90;;;;;;4974556;28;20229;-62
2021/07/09 09:09:17;;;;;;;35.07;25.83;;;19.30;1.00;;;;;;4974708;28;20211;-63
2021/07/09 09:12:00;;;;;;;33.17;25.33;;;19.40;1.00;;;;;;4974470;28;20636;-63
2021/07/09 09:14:27;;;;;;;32.47;24.73;;;19.80;99.90;;;;;;4974091;28;20215;-62
2021/07/09 09:16:53;;;;;;;31.93;28.00;;;20.10;99.90;;;;;;4974566;28;20271;-63
2021/07/09 09:19:21;;;;;;;30.87;25.90;;;20.20;99.90;;;;;;4974434;28;20228;-63
2021/07/09 09:22:08;;;;;;;29.53;25.90;;;20.30;99.90;;;;;;4974662;28;20688;-63
2021/07/09 09:24:36;;;;;;;31.40;26.40;;;20.70;99.90;;;;;;4973446;28;20239;-63
2021/07/09 09:27:17;;;;;;;30.57;25.97;;;20.80;99.90;;;;;;4974351;28;20288;-66
2021/07/09 09:29:44;;;;;;;29.50;26.30;;;20.80;99.90;;;;;;4972817;28;20263;-67
2021/07/09 09:32:11;;;;;;;36.13;28.37;;;20.60;72.10;;;;;;4973712;28;20744;-65
2021/07/09 09:34:39;;;;;;;28.60;25.07;;;20.70;78.40;;;;;;4965561;28;20662;-65
2021/07/09 09:37:06;;;;;;;31.13;27.53;;;20.90;17.70;;;;;;4971188;28;20232;-66
2021/07/09 09:39:33;;;;;;;34.87;28.43;;;21.00;32.40;;;;;;4974123;28;20224;-66
2021/07/09 09:42:19;;;;;;;28.57;24.83;;;21.20;1.00;;;;;;4971007;28;20204;-65
2021/07/09 09:44:48;;;;;;;28.87;25.80;;;21.40;1.00;;;;;;4973735;28;20624;-65
2021/07/09 09:47:16;;;;;;;30.83;27.40;;;21.20;1.00;;;;;;4973293;28;20228;-66
2021/07/09 09:49:44;;;;;;;26.50;22.73;;;21.10;1.00;;;;;;4974711;28;20208;-66
2021/07/09 09:52:11;;;;;;;26.70;23.93;;;20.70;1.00;;;;;;4975418;28;20232;-66
2021/07/09 09:54:37;;;;;;;22.80;18.40;;;20.60;1.00;;;;;;4974051;28;20208;-65
2021/07/09 09:57:06;;;;;;;24.07;21.13;;;20.70;1.00;;;;;;4975146;28;20289;-67
2021/07/09 09:59:34;;;;;;;27.53;23.73;;;20.60;1.00;;;;;;4984984;28;20668;-67
2021/07/09 10:02:03;;;;;;;24.17;21.60;;;20.80;1.00;;;;;;4994537;28;20207;-65
2021/07/09 10:04:31;;;;;;;22.87;19.13;;;20.90;1.00;;;;;;4993281;28;20214;-64
2021/07/09 10:07:00;;;;;;;22.00;17.80;;;21.00;1.00;;;;;;4993051;28;20227;-65
2021/07/09 10:09:28;;;;;;;20.10;17.67;;;21.00;1.00;;;;;;4992897;28;20632;-67
2021/07/09 10:11:56;;;;;;;22.10;18.20;;;21.20;1.00;;;;;;4992854;28;20361;-65
2021/07/09 10:14:26;;;;;;;21.83;15.57;;;21.50;1.00;;;;;;4992530;28;20243;-64
2021/07/09 10:16:59;;;;;;;22.33;16.67;;;21.80;1.00;;;;;;4992630;28;20688;-65
2021/07/09 10:19:28;;;;;;;21.00;17.57;;;21.90;99.90;;;;;;4992777;28;20231;-65
2021/07/09 10:21:55;;;;;;;19.63;17.63;;;21.90;1.00;;;;;;4992654;28;20265;-65
2021/07/09 10:24:21;;;;;;;15.93;14.30;;;21.90;1.00;;;;;;4992404;28;20623;-64
2021/07/09 10:26:51;;;;;;;18.80;15.70;;;22.00;1.00;;;;;;4992554;28;20232;-65
2021/07/09 10:29:20;;;;;;;21.03;15.97;;;22.00;99.90;;;;;;4992385;28;20723;-65
2021/07/09 10:31:49;;;;;;;17.57;15.73;;;21.80;99.90;;;;;;4992573;28;20211;-66
2021/07/09 10:34:29;;;;;;;16.73;15.03;;;21.50;99.90;;;;;;4992217;28;20462;-64
2021/07/09 10:36:59;;;;;;;18.40;14.97;;;21.50;99.90;;;;;;4992523;28;20231;-65
2021/07/09 10:39:39;;;;;;;18.90;14.70;;;21.60;1.00;;;;;;4992265;28;20298;-65
2021/07/09 10:42:19;;;;;;;16.60;13.47;;;21.60;1.00;;;;;;4992142;28;20207;-64
2021/07/09 10:45:05;;;;;;;18.87;14.17;;;21.60;99.90;;;;;;4992247;28;20676;-64
2021/07/09 10:47:39;;;;;;;13.20;11.83;;;21.60;99.90;;;;;;4992332;28;20254;-63
2021/07/09 10:50:09;;;;;;;12.90;10.57;;;21.60;99.90;;;;;;4992126;28;20266;-64
2021/07/09 10:52:54;;;;;;;14.43;11.57;;;21.60;99.90;;;;;;4992540;28;20621;-64
2021/07/09 10:55:43;;;;;;;14.33;11.77;;;21.60;99.90;;;;;;4992319;28;20214;-64
2021/07/09 10:58:19;;;;;;;13.13;11.53;;;21.70;99.90;;;;;;4992214;28;20318;-63
2021/07/09 11:00:48;;;;;;;12.93;9.77;;;21.70;99.90;;;;;;4992541;28;20231;-63
2021/07/09 11:03:24;;;;;;;11.17;8.50;;;21.80;99.90;;;;;;4992523;28;20211;-63
2021/07/09 11:06:00;;;;;;;9.87;6.93;;;21.60;99.90;;;;;;4992093;28;20211;-63
2021/07/09 11:08:45;;;;;;;9.17;6.80;;;21.40;99.90;;;;;;4992979;28;20265;-64
2021/07/09 11:11:13;;;;;;;13.20;9.87;;;21.50;99.90;;;;;;4992562;28;20211;-63
2021/07/09 11:13:49;;;;;;;6.27;5.27;;;21.80;99.90;;;;;;4991980;28;20214;-63
2021/07/09 11:16:24;;;;;;;6.03;4.37;;;22.10;99.90;;;;;;4992404;28;20269;-63
2021/07/09 11:18:52;;;;;;;5.17;4.23;;;22.40;99.90;;;;;;4992083;28;20273;-64
2021/07/09 11:21:47;;;;;;;6.10;4.23;;;22.50;99.90;;;;;;4992017;28;20266;-64
2021/07/09 11:24:17;;;;;;;6.80;4.60;;;22.80;99.90;;;;;;4991945;28;20266;-63
2021/07/09 11:26:45;;;;;;;4.27;3.80;;;23.10;99.90;;;;;;4991911;28;20223;-63
2021/07/09 11:29:24;;;;;;;4.20;3.80;;;22.80;99.90;;;;;;4991961;28;20254;-64
2021/07/09 11:31:52;;;;;;;5.50;4.57;;;22.80;99.90;;;;;;4991653;28;20262;-64
2021/07/09 11:34:20;;;;;;;6.73;4.77;;;22.70;99.90;;;;;;4991926;28;20208;-63
2021/07/09 11:36:51;;;;;;;6.13;4.97;;;22.40;99.90;;;;;;4992223;28;20235;-63
2021/07/09 11:39:19;;;;;;;6.17;4.40;;;22.30;99.90;;;;;;4991925;28;20236;-63
2021/07/09 11:42:01;;;;;;;9.10;5.13;;;22.30;99.90;;;;;;4991937;28;20204;-64
2021/07/09 11:44:30;;;;;;;8.00;4.83;;;22.10;99.90;;;;;;4991842;28;20211;-63
2021/07/09 11:46:59;;;;;;;7.20;5.33;;;21.90;99.90;;;;;;4991971;28;20227;-63
2021/07/09 11:49:27;;;;;;;51.47;46.07;;;21.80;99.90;;;;;;4991885;28;20274;-64
2021/07/09 11:51:59;;;;;;;6.97;6.27;;;21.70;99.90;;;;;;4992187;28;20266;-63
2021/07/09 11:54:28;;;;;;;10.73;6.80;;;21.80;99.90;;;;;;4994052;28;20211;-63
2021/07/09 11:56:58;;;;;;;19.17;14.90;;;21.90;99.90;;;;;;4995187;28;20645;-63
2021/07/09 11:59:25;;;;;;;6.33;4.27;;;22.00;99.90;;;;;;4995635;28;20270;-62
2021/07/09 12:02:15;;;;;;;5.50;4.40;;;21.90;99.90;;;;;;4994948;28;20934;-63
2021/07/09 12:04:47;;;;;;;6.70;4.00;;;22.00;99.90;;;;;;4995200;28;20208;-63
2021/07/09 12:07:24;;;;;;;7.63;4.43;;;22.10;99.90;;;;;;4994866;28;20282;-63
2021/07/09 12:09:53;;;;;;;6.53;4.30;;;22.30;99.90;;;;;;4995249;28;20258;-63
2021/07/09 12:12:21;;;;;;;6.27;4.73;;;22.30;99.90;;;;;;4994787;28;20207;-63
2021/07/09 12:15:02;;;;;;;5.63;4.27;;;22.20;99.90;;;;;;4994895;28;20211;-63
2021/07/09 12:17:31;;;;;;;6.93;4.53;;;22.00;99.90;;;;;;4994859;28;20235;-64
2021/07/09 12:20:05;;;;;;;4.93;3.90;;;21.80;99.90;;;;;;4994939;28;20234;-64
2021/07/09 12:22:35;;;;;;;5.70;4.33;;;21.80;99.90;;;;;;4994811;28;20212;-64
2021/07/09 12:25:07;;;;;;;5.60;3.33;;;22.00;99.90;;;;;;4994929;28;20211;-63
2021/07/09 12:27:35;;;;;;;4.00;3.20;;;22.30;99.90;;;;;;4994645;28;20228;-63
2021/07/09 12:30:07;;;;;;;4.60;3.80;;;22.50;99.90;;;;;;4994573;28;20208;-64
2021/07/09 12:32:34;;;;;;;4.10;3.40;;;22.60;99.90;;;;;;4994579;28;20207;-64
2021/07/09 12:35:09;;;;;;;4.43;3.17;;;22.60;99.90;;;;;;4994496;28;20203;-64
2021/07/09 12:37:37;;;;;;;3.90;3.10;;;22.70;99.90;;;;;;4995291;28;20608;-64
2021/07/09 12:40:12;;;;;;;5.30;3.90;;;22.80;99.90;;;;;;4994518;28;20232;-64